Time;durP1;ratioP1;P1;durP2;ratioP2;P2;SDS_P1;SDS_P2;PMS_P1;PMS_P2;Temp;Humidity;BMP_temperature;BMP_pressure;BME280_temperature;BME280_humidity;BME280_pressure;Samples;Min_cycle;Max_cycle;Signal;HPM_P1;HPM_P2
2023/09/30 00:01:52;;;;;;;5.55;2.22;;;;;;;;;;5126360;27;41987;-73
2023/09/30 00:04:20;;;;;;;7.60;2.38;;;;;;;;;;5120172;27;42034;-74
2023/09/30 00:06:48;;;;;;;4.55;2.08;;;;;;;;;;5125877;27;39749;-72
2023/09/30 00:09:17;;;;;;;5.05;2.00;;;;;;;;;;5124009;27;42435;-73
2023/09/30 00:11:45;;;;;;;3.88;1.98;;;;;;;;;;5106156;27;41039;-73
2023/09/30 00:14:13;;;;;;;4.00;1.83;;;;;;;;;;5124056;27;40990;-72
2023/09/30 00:16:41;;;;;;;4.93;2.00;;;;;;;;;;5127771;27;41583;-72
2023/09/30 00:19:10;;;;;;;3.88;1.48;;;;;;;;;;5126360;27;43861;-74
2023/09/30 00:21:37;;;;;;;5.13;2.50;;;;;;;;;;5118581;27;41064;-73
2023/09/30 00:24:06;;;;;;;4.30;2.17;;;;;;;;;;5126130;27;42656;-73
2023/09/30 00:26:35;;;;;;;4.13;2.40;;;;;;;;;;5128560;27;42851;-73
2023/09/30 00:29:04;;;;;;;3.70;1.92;;;;;;;;;;5128705;27;41147;-73
2023/09/30 00:31:32;;;;;;;3.08;1.70;;;;;;;;;;5108847;27;41335;-73
2023/09/30 00:34:00;;;;;;;5.35;2.60;;;;;;;;;;5128936;27;41424;-73
2023/09/30 00:36:28;;;;;;;4.63;2.38;;;;;;;;;;5124166;27;41800;-73
2023/09/30 00:38:56;;;;;;;2.85;1.63;;;;;;;;;;5117106;27;41365;-73
2023/09/30 00:41:25;;;;;;;5.20;2.35;;;;;;;;;;5126968;27;42144;-73
2023/09/30 00:43:54;;;;;;;3.53;1.98;;;;;;;;;;5114676;27;40236;-73
2023/09/30 00:46:25;;;;;;;4.85;1.98;;;;;;;;;;5115741;27;40422;-73
2023/09/30 00:48:54;;;;;;;3.42;2.05;;;;;;;;;;5114978;27;41370;-73
2023/09/30 00:51:22;;;;;;;5.40;2.42;;;;;;;;;;5110533;27;41637;-74
2023/09/30 00:53:50;;;;;;;4.57;2.30;;;;;;;;;;5113411;27;39784;-73
2023/09/30 00:56:18;;;;;;;6.25;2.22;;;;;;;;;;5128078;27;41395;-72
2023/09/30 00:58:46;;;;;;;3.30;1.70;;;;;;;;;;5113435;27;42124;-73
2023/09/30 01:01:15;;;;;;;3.58;1.90;;;;;;;;;;5127819;27;41355;-73
2023/09/30 01:03:43;;;;;;;3.83;2.20;;;;;;;;;;5125199;27;41330;-73
2023/09/30 01:06:12;;;;;;;3.10;1.70;;;;;;;;;;5127534;27;43072;-72
2023/09/30 01:08:40;;;;;;;3.63;2.10;;;;;;;;;;5146534;27;41172;-73
2023/09/30 01:11:08;;;;;;;3.97;1.70;;;;;;;;;;5127750;27;41890;-73
2023/09/30 01:13:37;;;;;;;3.92;1.92;;;;;;;;;;5128211;27;42111;-73
2023/09/30 01:16:05;;;;;;;3.45;1.63;;;;;;;;;;5128134;27;42686;-73
2023/09/30 01:18:35;;;;;;;3.50;1.60;;;;;;;;;;5109606;27;41403;-73
2023/09/30 01:21:04;;;;;;;3.05;1.52;;;;;;;;;;5109178;27;40328;-72
2023/09/30 01:23:33;;;;;;;4.22;1.98;;;;;;;;;;5127986;27;41639;-72
2023/09/30 01:26:03;;;;;;;3.00;1.73;;;;;;;;;;5125422;27;42762;-73
2023/09/30 01:28:31;;;;;;;3.53;1.45;;;;;;;;;;5127875;27;40913;-72
2023/09/30 01:30:59;;;;;;;2.70;1.73;;;;;;;;;;5110090;27;40286;-73
2023/09/30 01:33:27;;;;;;;2.90;1.67;;;;;;;;;;5127388;27;41997;-73
2023/09/30 01:35:55;;;;;;;3.75;1.60;;;;;;;;;;5128515;27;41431;-73
2023/09/30 01:38:23;;;;;;;5.43;1.80;;;;;;;;;;5127835;27;41907;-73
2023/09/30 01:40:54;;;;;;;3.50;1.48;;;;;;;;;;5109626;27;40549;-73
2023/09/30 01:43:23;;;;;;;3.53;1.95;;;;;;;;;;5123715;27;41034;-73
2023/09/30 01:45:51;;;;;;;4.15;2.08;;;;;;;;;;5109851;27;41362;-72
2023/09/30 01:48:19;;;;;;;3.85;1.85;;;;;;;;;;5128236;27;41748;-73
2023/09/30 01:50:47;;;;;;;2.50;1.30;;;;;;;;;;5126543;27;42797;-73
2023/09/30 01:53:16;;;;;;;3.53;1.90;;;;;;;;;;5129044;27;42068;-73
2023/09/30 01:55:44;;;;;;;3.92;1.60;;;;;;;;;;5125032;27;41995;-73
2023/09/30 01:58:13;;;;;;;3.72;2.00;;;;;;;;;;5104756;28;43911;-73
2023/09/30 02:00:41;;;;;;;2.45;1.45;;;;;;;;;;5102075;27;40433;-73
2023/09/30 02:03:09;;;;;;;3.60;1.83;;;;;;;;;;5128003;27;41855;-73
2023/09/30 02:05:39;;;;;;;3.92;1.77;;;;;;;;;;5120647;27;42414;-73
2023/09/30 02:08:07;;;;;;;4.60;2.38;;;;;;;;;;5128690;27;40845;-73
2023/09/30 02:10:35;;;;;;;3.03;1.50;;;;;;;;;;5127261;27;42292;-73
2023/09/30 02:13:05;;;;;;;3.53;1.75;;;;;;;;;;5127093;27;43176;-73
2023/09/30 02:15:35;;;;;;;3.40;2.00;;;;;;;;;;5129064;27;41702;-72
2023/09/30 02:18:04;;;;;;;3.33;1.60;;;;;;;;;;5111274;27;40614;-74
2023/09/30 02:20:32;;;;;;;2.85;1.65;;;;;;;;;;5112178;27;41366;-72
2023/09/30 02:23:02;;;;;;;6.90;1.77;;;;;;;;;;5131185;27;42627;-73
2023/09/30 02:25:31;;;;;;;3.08;1.98;;;;;;;;;;5130639;27;41696;-73
2023/09/30 02:28:00;;;;;;;3.33;1.65;;;;;;;;;;5130899;27;41347;-73
2023/09/30 02:30:28;;;;;;;3.22;1.10;;;;;;;;;;5130586;27;43273;-72
2023/09/30 02:32:57;;;;;;;2.15;1.48;;;;;;;;;;5131169;27;40909;-73
2023/09/30 02:35:26;;;;;;;2.90;1.25;;;;;;;;;;5129936;27;41419;-73
2023/09/30 02:37:54;;;;;;;2.45;1.42;;;;;;;;;;5131841;27;42730;-72
2023/09/30 02:40:24;;;;;;;3.88;2.10;;;;;;;;;;5110990;27;40548;-73
2023/09/30 02:42:52;;;;;;;3.78;1.40;;;;;;;;;;5112255;27;41655;-73
2023/09/30 02:45:20;;;;;;;3.17;1.77;;;;;;;;;;5110656;27;41416;-73
2023/09/30 02:47:48;;;;;;;3.33;1.55;;;;;;;;;;5131542;27;41631;-72
2023/09/30 02:50:18;;;;;;;1.90;1.38;;;;;;;;;;5112533;27;40301;-73
2023/09/30 02:52:46;;;;;;;1.70;1.00;;;;;;;;;;5129177;27;42472;-73
2023/09/30 02:55:14;;;;;;;1.67;1.27;;;;;;;;;;5131836;27;42194;-72
2023/09/30 02:57:46;;;;;;;2.72;1.42;;;;;;;;;;5111338;27;40107;-73
2023/09/30 03:00:23;;;;;;;2.92;1.55;;;;;;;;;;5111995;27;31709;-73
2023/09/30 03:02:52;;;;;;;6.43;1.67;;;;;;;;;;5109251;27;40108;-73
2023/09/30 03:05:22;;;;;;;2.33;1.02;;;;;;;;;;5131208;27;43115;-73
2023/09/30 03:07:50;;;;;;;2.90;1.60;;;;;;;;;;5129673;27;41346;-73
2023/09/30 03:10:20;;;;;;;2.72;1.63;;;;;;;;;;5111939;27;41319;-73
2023/09/30 03:12:48;;;;;;;3.15;1.75;;;;;;;;;;5129640;27;43248;-73
2023/09/30 03:15:16;;;;;;;2.50;1.40;;;;;;;;;;5129016;27;41392;-72
2023/09/30 03:17:44;;;;;;;4.63;1.45;;;;;;;;;;5130090;27;42985;-72
2023/09/30 03:20:14;;;;;;;2.58;1.70;;;;;;;;;;5129944;27;42139;-73
2023/09/30 03:22:43;;;;;;;1.90;1.25;;;;;;;;;;5119753;27;42265;-73
2023/09/30 03:25:12;;;;;;;2.78;1.60;;;;;;;;;;5114629;27;42036;-73
2023/09/30 03:27:40;;;;;;;2.40;1.48;;;;;;;;;;5118710;27;41297;-73
2023/09/30 03:30:11;;;;;;;2.50;1.55;;;;;;;;;;5129665;27;42212;-73
2023/09/30 03:32:39;;;;;;;2.88;1.45;;;;;;;;;;5113148;27;39676;-73
2023/09/30 03:35:10;;;;;;;3.20;1.95;;;;;;;;;;5127105;27;41343;-72
2023/09/30 03:37:38;;;;;;;3.03;1.35;;;;;;;;;;5129542;27;41626;-73
2023/09/30 03:40:14;;;;;;;2.10;1.38;;;;;;;;;;5130458;27;41907;-73
2023/09/30 03:42:43;;;;;;;3.63;2.30;;;;;;;;;;5122529;27;41426;-72
2023/09/30 03:45:13;;;;;;;3.63;1.90;;;;;;;;;;5130826;27;41519;-73
2023/09/30 03:47:41;;;;;;;2.08;1.10;;;;;;;;;;5129270;27;41153;-73
2023/09/30 03:50:14;;;;;;;3.05;1.55;;;;;;;;;;5129268;27;42685;-73
2023/09/30 03:52:44;;;;;;;2.30;1.23;;;;;;;;;;5125797;27;42093;-72
2023/09/30 03:55:17;;;;;;;4.07;2.00;;;;;;;;;;5127690;27;41348;-73
2023/09/30 03:57:48;;;;;;;5.50;2.13;;;;;;;;;;5126107;27;42506;-73
2023/09/30 04:00:18;;;;;;;3.83;1.83;;;;;;;;;;5130080;27;42187;-73
2023/09/30 04:02:49;;;;;;;2.58;1.45;;;;;;;;;;5125683;27;41320;-73
2023/09/30 04:05:18;;;;;;;2.80;1.55;;;;;;;;;;5129832;27;42676;-72
2023/09/30 04:07:46;;;;;;;2.08;1.45;;;;;;;;;;5130033;27;42207;-73
2023/09/30 04:10:16;;;;;;;2.95;1.50;;;;;;;;;;5109458;27;40228;-73
2023/09/30 04:12:48;;;;;;;2.85;1.52;;;;;;;;;;5128829;27;42910;-73
2023/09/30 04:15:16;;;;;;;3.08;1.88;;;;;;;;;;5128729;27;41371;-73
2023/09/30 04:17:44;;;;;;;2.50;1.52;;;;;;;;;;5110658;27;40119;-72
2023/09/30 04:20:16;;;;;;;2.58;1.40;;;;;;;;;;5110880;27;41817;-73
2023/09/30 04:22:48;;;;;;;3.10;1.70;;;;;;;;;;5125745;27;42319;-73
2023/09/30 04:25:17;;;;;;;2.25;1.15;;;;;;;;;;5128900;27;41420;-73
2023/09/30 04:27:47;;;;;;;4.10;1.70;;;;;;;;;;5128709;27;42307;-73
2023/09/30 04:30:16;;;;;;;2.80;1.83;;;;;;;;;;5126723;27;42102;-72
2023/09/30 04:32:44;;;;;;;3.03;1.80;;;;;;;;;;5127970;27;41816;-72
2023/09/30 04:35:13;;;;;;;3.58;2.40;;;;;;;;;;5110431;27;40025;-73
2023/09/30 04:37:40;;;;;;;2.72;1.98;;;;;;;;;;5127347;27;41446;-72
2023/09/30 04:40:15;;;;;;;3.03;1.80;;;;;;;;;;5126568;27;41748;-73
2023/09/30 04:42:45;;;;;;;3.47;1.73;;;;;;;;;;5123031;27;41105;-72
2023/09/30 04:45:14;;;;;;;3.00;1.95;;;;;;;;;;5128267;27;41844;-73
2023/09/30 04:47:44;;;;;;;2.58;1.80;;;;;;;;;;5126148;27;43072;-73
2023/09/30 04:50:16;;;;;;;3.15;1.70;;;;;;;;;;5128736;27;42238;-72
2023/09/30 04:52:45;;;;;;;3.08;1.70;;;;;;;;;;5110555;27;42089;-72
2023/09/30 04:55:15;;;;;;;2.65;1.58;;;;;;;;;;5128215;27;41991;-73
2023/09/30 04:57:46;;;;;;;4.07;2.22;;;;;;;;;;5124494;27;41992;-72
2023/09/30 05:00:14;;;;;;;2.70;1.98;;;;;;;;;;5128442;27;41898;-73
2023/09/30 05:02:44;;;;;;;3.00;1.73;;;;;;;;;;5128797;27;41394;-72
2023/09/30 05:05:13;;;;;;;3.88;2.60;;;;;;;;;;5125852;27;41841;-72
2023/09/30 05:07:41;;;;;;;2.65;1.52;;;;;;;;;;5125580;27;42710;-73
2023/09/30 05:10:11;;;;;;;2.55;1.60;;;;;;;;;;5127549;27;42391;-72
2023/09/30 05:12:40;;;;;;;3.05;1.70;;;;;;;;;;5120972;27;42345;-73
2023/09/30 05:15:10;;;;;;;4.35;2.20;;;;;;;;;;5128384;27;40988;-72
2023/09/30 05:17:38;;;;;;;3.08;1.90;;;;;;;;;;5127898;27;42652;-73
2023/09/30 05:20:07;;;;;;;2.47;1.52;;;;;;;;;;5127669;27;43812;-73
2023/09/30 05:22:35;;;;;;;3.95;2.35;;;;;;;;;;5125575;27;41164;-73
2023/09/30 05:25:03;;;;;;;2.72;1.63;;;;;;;;;;5118439;27;42048;-72
2023/09/30 05:27:32;;;;;;;2.38;1.50;;;;;;;;;;5124586;27;42161;-73
2023/09/30 05:30:00;;;;;;;2.83;1.92;;;;;;;;;;5128021;27;41001;-72
2023/09/30 05:32:30;;;;;;;3.03;2.33;;;;;;;;;;5128094;27;42542;-72
2023/09/30 05:34:58;;;;;;;2.88;1.27;;;;;;;;;;5126541;27;40463;-73
2023/09/30 05:37:28;;;;;;;4.63;2.90;;;;;;;;;;5128483;27;41680;-72
2023/09/30 05:39:55;;;;;;;3.25;2.28;;;;;;;;;;5127483;27;41860;-73
2023/09/30 05:42:23;;;;;;;2.97;1.90;;;;;;;;;;5128318;27;40725;-73
2023/09/30 05:44:53;;;;;;;3.95;2.92;;;;;;;;;;5113407;27;41504;-72
2023/09/30 05:47:21;;;;;;;2.75;1.58;;;;;;;;;;5126245;27;41919;-73
2023/09/30 05:49:50;;;;;;;3.28;2.08;;;;;;;;;;5128172;27;40953;-73
2023/09/30 05:52:19;;;;;;;2.42;1.50;;;;;;;;;;5125519;27;41920;-72
2023/09/30 05:54:48;;;;;;;3.47;2.35;;;;;;;;;;5128049;27;42329;-73
2023/09/30 05:57:17;;;;;;;2.20;1.60;;;;;;;;;;5126499;27;41578;-72
2023/09/30 05:59:46;;;;;;;3.58;2.40;;;;;;;;;;5121122;27;41499;-73
2023/09/30 06:02:14;;;;;;;3.92;2.45;;;;;;;;;;5124194;27;42299;-72
2023/09/30 06:04:42;;;;;;;3.92;2.78;;;;;;;;;;5113910;27;42420;-72
2023/09/30 06:07:11;;;;;;;3.78;2.83;;;;;;;;;;5121379;27;41707;-73
2023/09/30 06:09:39;;;;;;;6.43;3.38;;;;;;;;;;5124994;27;41750;-73
2023/09/30 06:12:07;;;;;;;4.53;3.00;;;;;;;;;;5106938;27;40513;-72
2023/09/30 06:14:35;;;;;;;5.10;3.15;;;;;;;;;;5120927;27;41907;-73
2023/09/30 06:17:03;;;;;;;5.03;3.50;;;;;;;;;;5116276;27;42241;-74
2023/09/30 06:19:31;;;;;;;4.22;3.35;;;;;;;;;;5108322;27;40994;-73
2023/09/30 06:21:59;;;;;;;5.15;3.58;;;;;;;;;;5126594;27;41046;-73
2023/09/30 06:24:29;;;;;;;4.82;3.25;;;;;;;;;;5125623;27;41106;-73
2023/09/30 06:26:57;;;;;;;4.53;3.03;;;;;;;;;;5124843;27;43175;-73
2023/09/30 06:29:26;;;;;;;4.70;3.03;;;;;;;;;;5127578;27;42365;-73
2023/09/30 06:31:54;;;;;;;5.05;3.60;;;;;;;;;;5125648;27;41666;-72
2023/09/30 06:34:22;;;;;;;4.68;3.25;;;;;;;;;;5115530;27;43117;-73
2023/09/30 06:36:50;;;;;;;2.65;1.55;;;;;;;;;;5126950;27;41912;-69
2023/09/30 06:39:19;;;;;;;3.17;2.25;;;;;;;;;;5128085;27;41726;-69
2023/09/30 06:41:48;;;;;;;4.57;1.90;;;;;;;;;;5123062;27;41011;-70
2023/09/30 06:44:16;;;;;;;4.93;2.75;;;;;;;;;;5127620;27;41776;-71
2023/09/30 06:46:44;;;;;;;5.20;2.13;;;;;;;;;;5104009;27;41999;-71
2023/09/30 06:49:12;;;;;;;4.80;2.75;;;;;;;;;;5126760;27;42279;-69
2023/09/30 06:51:40;;;;;;;6.80;2.67;;;;;;;;;;5126390;27;42239;-70
2023/09/30 06:54:08;;;;;;;4.25;1.63;;;;;;;;;;5125751;27;42124;-70
2023/09/30 06:56:36;;;;;;;3.83;2.25;;;;;;;;;;5127265;27;40935;-70
2023/09/30 06:59:06;;;;;;;8.20;2.67;;;;;;;;;;5127355;27;41004;-69
2023/09/30 07:01:34;;;;;;;6.00;3.22;;;;;;;;;;5130544;27;42228;-69
2023/09/30 07:04:02;;;;;;;5.63;2.40;;;;;;;;;;5129096;27;42708;-69
2023/09/30 07:06:30;;;;;;;7.90;3.83;;;;;;;;;;5129820;27;41771;-70
2023/09/30 07:08:58;;;;;;;5.78;3.15;;;;;;;;;;5130346;27;41579;-71
2023/09/30 07:11:30;;;;;;;5.28;2.92;;;;;;;;;;5110884;27;40970;-70
2023/09/30 07:13:58;;;;;;;9.82;3.72;;;;;;;;;;5129626;27;42364;-70
2023/09/30 07:16:28;;;;;;;8.20;3.42;;;;;;;;;;5123020;27;41069;-69
2023/09/30 07:18:56;;;;;;;10.70;3.50;;;;;;;;;;5130301;27;41940;-69
2023/09/30 07:21:24;;;;;;;4.07;2.75;;;;;;;;;;5129332;27;43189;-71
2023/09/30 07:23:52;;;;;;;6.68;3.42;;;;;;;;;;5129423;27;41996;-70
2023/09/30 07:26:24;;;;;;;7.22;3.72;;;;;;;;;;5129341;27;41801;-71
2023/09/30 07:28:53;;;;;;;5.68;2.90;;;;;;;;;;5125766;27;42213;-71
2023/09/30 07:31:23;;;;;;;4.45;3.20;;;;;;;;;;5128243;27;42411;-71
2023/09/30 07:33:53;;;;;;;4.85;3.00;;;;;;;;;;5106067;27;41473;-70
2023/09/30 07:36:21;;;;;;;3.78;2.40;;;;;;;;;;5115671;27;41457;-70
2023/09/30 07:38:49;;;;;;;5.68;2.22;;;;;;;;;;5128773;27;42449;-72
2023/09/30 07:41:17;;;;;;;7.47;2.72;;;;;;;;;;5110537;27;41240;-70
2023/09/30 07:43:45;;;;;;;4.43;2.85;;;;;;;;;;5128855;27;40777;-70
2023/09/30 07:46:15;;;;;;;5.43;3.25;;;;;;;;;;5129914;27;42124;-71
2023/09/30 07:48:43;;;;;;;3.78;1.98;;;;;;;;;;5127798;27;42042;-71
2023/09/30 07:51:15;;;;;;;7.15;3.45;;;;;;;;;;5128764;27;42139;-70
2023/09/30 07:53:43;;;;;;;8.52;2.92;;;;;;;;;;5129922;27;42109;-70
2023/09/30 07:56:11;;;;;;;9.15;5.75;;;;;;;;;;5128193;27;41994;-70
2023/09/30 07:58:39;;;;;;;7.35;3.35;;;;;;;;;;5130267;27;41806;-71
2023/09/30 08:01:08;;;;;;;13.52;3.10;;;;;;;;;;5129000;27;41519;-70
2023/09/30 08:03:36;;;;;;;7.93;4.95;;;;;;;;;;5121624;27;40972;-71
2023/09/30 08:06:04;;;;;;;12.38;5.43;;;;;;;;;;5129169;27;41743;-71
2023/09/30 08:08:34;;;;;;;12.23;6.63;;;;;;;;;;5110276;27;39800;-72
2023/09/30 08:11:02;;;;;;;12.20;5.15;;;;;;;;;;5128176;27;42292;-70
2023/09/30 08:13:30;;;;;;;10.45;6.32;;;;;;;;;;5128377;27;42014;-70
2023/09/30 08:15:58;;;;;;;11.00;5.38;;;;;;;;;;5128827;27;41668;-70
2023/09/30 08:18:26;;;;;;;12.90;4.65;;;;;;;;;;5126666;27;42159;-70
2023/09/30 08:20:54;;;;;;;9.52;5.75;;;;;;;;;;5129863;27;41854;-71
2023/09/30 08:23:22;;;;;;;13.57;7.13;;;;;;;;;;5109002;27;39548;-69
2023/09/30 08:25:51;;;;;;;12.38;6.10;;;;;;;;;;5126342;27;41651;-69
2023/09/30 08:28:19;;;;;;;8.85;5.30;;;;;;;;;;5110392;27;41438;-71
2023/09/30 08:30:47;;;;;;;12.38;6.63;;;;;;;;;;5128468;27;41799;-69
2023/09/30 08:33:15;;;;;;;10.30;5.80;;;;;;;;;;5125809;27;43030;-69
2023/09/30 08:35:43;;;;;;;10.52;6.80;;;;;;;;;;5127381;27;40902;-70
2023/09/30 08:38:11;;;;;;;10.88;7.40;;;;;;;;;;5129253;27;41379;-70
2023/09/30 08:40:40;;;;;;;11.00;5.93;;;;;;;;;;5109585;27;40574;-70
2023/09/30 08:43:10;;;;;;;13.05;6.82;;;;;;;;;;5128492;27;43977;-69
2023/09/30 08:45:38;;;;;;;10.70;6.35;;;;;;;;;;5127690;27;42491;-70
2023/09/30 08:48:06;;;;;;;13.30;5.68;;;;;;;;;;5104080;28;41159;-69
2023/09/30 08:50:34;;;;;;;10.48;6.28;;;;;;;;;;5120181;27;41754;-71
2023/09/30 08:53:03;;;;;;;16.42;6.32;;;;;;;;;;5108943;27;41212;-70
2023/09/30 08:55:32;;;;;;;16.67;7.47;;;;;;;;;;5129133;27;42042;-71
2023/09/30 08:58:00;;;;;;;10.70;6.70;;;;;;;;;;5115675;27;41248;-71
2023/09/30 09:00:30;;;;;;;18.00;8.02;;;;;;;;;;5112972;27;43151;-71
2023/09/30 09:02:58;;;;;;;18.27;9.07;;;;;;;;;;5118329;27;40929;-70
2023/09/30 09:05:26;;;;;;;16.10;8.50;;;;;;;;;;5120594;27;41211;-70
2023/09/30 09:07:54;;;;;;;13.82;7.63;;;;;;;;;;5122808;27;41685;-70
2023/09/30 09:10:22;;;;;;;16.25;8.20;;;;;;;;;;5118651;27;40991;-70
2023/09/30 09:12:55;;;;;;;16.15;8.18;;;;;;;;;;5114068;27;42708;-70
2023/09/30 09:15:24;;;;;;;16.70;8.18;;;;;;;;;;5108486;27;39993;-70
2023/09/30 09:17:54;;;;;;;17.02;8.75;;;;;;;;;;5128279;27;41818;-70
2023/09/30 09:20:23;;;;;;;13.63;7.55;;;;;;;;;;5127278;27;43092;-70
2023/09/30 09:22:53;;;;;;;13.18;8.43;;;;;;;;;;5127944;27;41310;-71
2023/09/30 09:25:22;;;;;;;21.95;8.52;;;;;;;;;;5103353;27;42524;-70
2023/09/30 09:27:51;;;;;;;22.15;9.50;;;;;;;;;;5106218;28;41357;-69
2023/09/30 09:30:19;;;;;;;16.55;8.35;;;;;;;;;;5106407;28;41185;-69
2023/09/30 09:32:55;;;;;;;12.18;7.80;;;;;;;;;;5105878;28;41864;-70
2023/09/30 09:35:25;;;;;;;19.13;8.60;;;;;;;;;;5105990;28;39965;-71
2023/09/30 09:37:57;;;;;;;13.15;8.10;;;;;;;;;;5096387;27;41950;-70
2023/09/30 09:40:25;;;;;;;16.02;8.43;;;;;;;;;;5106818;28;42795;-70
2023/09/30 09:42:54;;;;;;;16.95;8.05;;;;;;;;;;5105369;27;41494;-70
2023/09/30 09:45:23;;;;;;;18.80;8.20;;;;;;;;;;5106924;27;41732;-70
2023/09/30 09:47:52;;;;;;;16.20;8.10;;;;;;;;;;5104984;28;43189;-70
2023/09/30 09:50:22;;;;;;;18.17;8.55;;;;;;;;;;5106849;27;42229;-70
2023/09/30 09:52:51;;;;;;;17.83;8.00;;;;;;;;;;5106061;27;41911;-70
2023/09/30 09:55:19;;;;;;;11.95;7.93;;;;;;;;;;5107199;28;41738;-70
2023/09/30 09:57:47;;;;;;;16.85;7.43;;;;;;;;;;5106189;27;41683;-70
2023/09/30 10:00:16;;;;;;;15.55;8.95;;;;;;;;;;5097495;27;43738;-70
2023/09/30 10:02:44;;;;;;;19.92;11.18;;;;;;;;;;5105405;28;41790;-70
2023/09/30 10:05:12;;;;;;;17.85;8.93;;;;;;;;;;5104545;27;42185;-69
2023/09/30 10:07:43;;;;;;;29.02;11.77;;;;;;;;;;5101316;28;42133;-70
2023/09/30 10:10:13;;;;;;;15.98;7.53;;;;;;;;;;5101048;28;42633;-70
2023/09/30 10:12:41;;;;;;;14.95;7.40;;;;;;;;;;5106271;28;41843;-69
2023/09/30 10:15:28;;;;;;;20.60;7.28;;;;;;;;;;5103083;27;41555;-70
2023/09/30 10:18:00;;;;;;;13.23;6.43;;;;;;;;;;5105968;28;42492;-69
2023/09/30 10:20:29;;;;;;;20.20;7.28;;;;;;;;;;5103497;27;41514;-69
2023/09/30 10:23:15;;;;;;;13.85;7.07;;;;;;;;;;5101919;27;41385;-70
2023/09/30 10:25:47;;;;;;;13.75;6.57;;;;;;;;;;5084732;27;39937;-69
2023/09/30 10:28:34;;;;;;;11.05;6.00;;;;;;;;;;5103341;28;42464;-70
2023/09/30 10:31:08;;;;;;;11.05;5.90;;;;;;;;;;5095498;28;41220;-69
2023/09/30 10:33:36;;;;;;;12.93;4.90;;;;;;;;;;5104837;27;42348;-72
2023/09/30 10:36:04;;;;;;;18.25;5.82;;;;;;;;;;5109730;27;41830;-71
2023/09/30 10:38:40;;;;;;;10.90;5.63;;;;;;;;;;5107917;27;41500;-71
2023/09/30 10:41:09;;;;;;;16.17;5.13;;;;;;;;;;5106018;28;41939;-71
2023/09/30 10:43:38;;;;;;;19.23;4.53;;;;;;;;;;5105934;27;42370;-71
2023/09/30 10:46:07;;;;;;;11.57;4.50;;;;;;;;;;5108283;27;42202;-71
2023/09/30 10:48:39;;;;;;;15.85;5.25;;;;;;;;;;5105647;28;41384;-72
2023/09/30 10:51:14;;;;;;;15.05;5.43;;;;;;;;;;5102019;28;42063;-72
2023/09/30 10:53:42;;;;;;;12.27;5.20;;;;;;;;;;5108343;28;41891;-72
2023/09/30 10:56:12;;;;;;;10.63;3.90;;;;;;;;;;5106518;28;42103;-72
2023/09/30 10:58:40;;;;;;;13.85;3.80;;;;;;;;;;5106128;28;41391;-71
2023/09/30 11:01:08;;;;;;;8.93;4.00;;;;;;;;;;5102006;27;41298;-70
2023/09/30 11:03:37;;;;;;;8.05;4.00;;;;;;;;;;5103683;27;41928;-71
2023/09/30 11:06:05;;;;;;;11.80;5.03;;;;;;;;;;5104797;28;41963;-70
2023/09/30 11:08:36;;;;;;;13.50;5.40;;;;;;;;;;5107093;28;43203;-71
2023/09/30 11:11:04;;;;;;;10.05;4.43;;;;;;;;;;5108640;28;42043;-72
2023/09/30 11:13:35;;;;;;;11.35;4.65;;;;;;;;;;5107944;28;42022;-69
2023/09/30 11:16:04;;;;;;;9.25;4.07;;;;;;;;;;5105610;28;42027;-69
2023/09/30 11:18:32;;;;;;;8.82;4.07;;;;;;;;;;5106427;28;41728;-71
2023/09/30 11:21:07;;;;;;;11.50;3.42;;;;;;;;;;5109072;28;41373;-71
2023/09/30 11:23:35;;;;;;;10.25;3.42;;;;;;;;;;5104043;28;40417;-71
2023/09/30 11:26:03;;;;;;;14.75;3.30;;;;;;;;;;5108387;27;41695;-68
2023/09/30 11:28:39;;;;;;;12.15;3.47;;;;;;;;;;5104937;28;42237;-70
2023/09/30 11:31:10;;;;;;;11.43;3.35;;;;;;;;;;5098304;28;41846;-70
2023/09/30 11:33:48;;;;;;;8.63;3.30;;;;;;;;;;5089102;28;40628;-70
2023/09/30 11:36:16;;;;;;;6.90;2.83;;;;;;;;;;5106228;28;42865;-71
2023/09/30 11:38:45;;;;;;;6.70;2.47;;;;;;;;;;5107769;27;41599;-70
2023/09/30 11:41:13;;;;;;;8.68;3.08;;;;;;;;;;5108540;27;41267;-69
2023/09/30 11:43:59;;;;;;;8.90;2.67;;;;;;;;;;5109599;28;42113;-69
2023/09/30 11:46:28;;;;;;;11.30;3.25;;;;;;;;;;5105638;28;41222;-70
2023/09/30 11:49:00;;;;;;;7.97;2.60;;;;;;;;;;5107827;28;43235;-70
2023/09/30 11:51:28;;;;;;;9.40;2.97;;;;;;;;;;5103969;28;41449;-70
2023/09/30 11:53:57;;;;;;;11.48;2.47;;;;;;;;;;5108066;28;42404;-70
2023/09/30 11:56:29;;;;;;;13.50;3.17;;;;;;;;;;5108211;28;43288;-69
2023/09/30 11:58:58;;;;;;;11.63;3.72;;;;;;;;;;5104749;28;41338;-69
2023/09/30 12:01:30;;;;;;;10.70;3.45;;;;;;;;;;5108715;28;42547;-69
2023/09/30 12:03:59;;;;;;;9.65;2.72;;;;;;;;;;5104591;28;42820;-69
2023/09/30 12:06:27;;;;;;;5.85;2.50;;;;;;;;;;5108781;28;41270;-69
2023/09/30 12:08:56;;;;;;;9.35;4.15;;;;;;;;;;5106607;28;42243;-69
2023/09/30 12:11:25;;;;;;;9.20;2.92;;;;;;;;;;5090484;28;39848;-69
2023/09/30 12:13:53;;;;;;;7.40;2.58;;;;;;;;;;5106415;28;41542;-69
2023/09/30 12:16:23;;;;;;;5.00;2.80;;;;;;;;;;5106162;28;42433;-70
2023/09/30 12:18:52;;;;;;;6.38;3.25;;;;;;;;;;5108485;28;41222;-69
2023/09/30 12:21:20;;;;;;;8.05;3.05;;;;;;;;;;5104838;28;41741;-70
2023/09/30 12:23:48;;;;;;;7.10;3.28;;;;;;;;;;5107469;28;42989;-69
2023/09/30 12:26:19;;;;;;;8.15;3.05;;;;;;;;;;5105302;28;41793;-69
2023/09/30 12:28:48;;;;;;;8.07;2.72;;;;;;;;;;5108224;28;41367;-69
2023/09/30 12:31:16;;;;;;;5.78;2.70;;;;;;;;;;5106821;28;42916;-70
2023/09/30 12:33:50;;;;;;;6.10;2.42;;;;;;;;;;5108538;28;42376;-70
2023/09/30 12:36:18;;;;;;;5.63;2.25;;;;;;;;;;5104107;28;43038;-70
2023/09/30 12:38:47;;;;;;;5.20;2.67;;;;;;;;;;5107982;28;40866;-70
2023/09/30 12:41:15;;;;;;;7.88;2.78;;;;;;;;;;5107201;28;41847;-70
2023/09/30 12:43:43;;;;;;;7.15;2.78;;;;;;;;;;5106752;28;41964;-70
2023/09/30 12:46:13;;;;;;;5.75;2.60;;;;;;;;;;5107999;28;42307;-69
2023/09/30 12:48:41;;;;;;;5.93;2.42;;;;;;;;;;5090819;28;42368;-69
2023/09/30 12:51:11;;;;;;;5.97;2.45;;;;;;;;;;5105542;28;42044;-70
2023/09/30 12:53:39;;;;;;;4.78;2.53;;;;;;;;;;5107330;28;41394;-69
2023/09/30 12:56:07;;;;;;;7.13;2.88;;;;;;;;;;5105118;27;43716;-70
2023/09/30 12:58:35;;;;;;;5.97;2.40;;;;;;;;;;5099702;28;41335;-69
2023/09/30 13:01:03;;;;;;;5.03;2.75;;;;;;;;;;5104850;28;41737;-69
2023/09/30 13:03:47;;;;;;;7.30;2.50;;;;;;;;;;5103021;28;42108;-69
2023/09/30 13:06:17;;;;;;;4.63;1.90;;;;;;;;;;5102960;28;42325;-69
2023/09/30 13:08:45;;;;;;;5.45;2.70;;;;;;;;;;5108130;28;41267;-70
2023/09/30 13:11:13;;;;;;;4.53;2.50;;;;;;;;;;5106448;28;43115;-70
2023/09/30 13:13:41;;;;;;;4.35;2.00;;;;;;;;;;5107630;28;42153;-70
2023/09/30 13:16:11;;;;;;;4.70;2.30;;;;;;;;;;5101686;28;42497;-69
2023/09/30 13:18:39;;;;;;;5.30;2.33;;;;;;;;;;5104657;28;41402;-69
2023/09/30 13:21:07;;;;;;;5.80;2.72;;;;;;;;;;5106647;28;42652;-70
2023/09/30 13:23:37;;;;;;;5.22;2.47;;;;;;;;;;5106106;28;42696;-69
2023/09/30 13:26:04;;;;;;;5.65;2.22;;;;;;;;;;5106961;28;41952;-69
2023/09/30 13:28:32;;;;;;;4.82;2.20;;;;;;;;;;5106384;28;42183;-69
2023/09/30 13:31:00;;;;;;;5.68;2.55;;;;;;;;;;5103213;28;42018;-70
2023/09/30 13:33:28;;;;;;;14.20;2.72;;;;;;;;;;5104142;28;41170;-71
2023/09/30 13:35:56;;;;;;;7.45;2.60;;;;;;;;;;5105179;28;41237;-70
2023/09/30 13:38:24;;;;;;;6.43;2.80;;;;;;;;;;5107226;28;34850;-70
2023/09/30 13:40:54;;;;;;;7.68;2.75;;;;;;;;;;5107093;28;42368;-70
2023/09/30 13:43:22;;;;;;;9.25;3.10;;;;;;;;;;5108172;28;43169;-69
2023/09/30 13:45:50;;;;;;;8.63;2.90;;;;;;;;;;5106414;28;41062;-70
2023/09/30 13:48:18;;;;;;;8.93;2.70;;;;;;;;;;5107708;28;41022;-70
2023/09/30 13:50:46;;;;;;;19.42;3.22;;;;;;;;;;5104407;28;41868;-70
2023/09/30 13:53:15;;;;;;;7.22;2.75;;;;;;;;;;5106746;28;42302;-70
2023/09/30 13:55:43;;;;;;;11.27;3.55;;;;;;;;;;5098143;28;41543;-69
2023/09/30 13:58:12;;;;;;;7.10;2.63;;;;;;;;;;5104799;28;42869;-70
2023/09/30 14:00:41;;;;;;;10.65;3.03;;;;;;;;;;5103459;28;41712;-70
2023/09/30 14:03:09;;;;;;;11.10;3.17;;;;;;;;;;5103524;28;42106;-70
2023/09/30 14:05:38;;;;;;;10.35;3.22;;;;;;;;;;5095440;28;41311;-70
2023/09/30 14:08:07;;;;;;;13.73;3.85;;;;;;;;;;5104534;28;41956;-70
2023/09/30 14:10:36;;;;;;;15.48;3.35;;;;;;;;;;5106265;28;42084;-69
2023/09/30 14:13:04;;;;;;;12.77;3.95;;;;;;;;;;5104775;28;41906;-69
2023/09/30 14:15:33;;;;;;;15.07;3.53;;;;;;;;;;5105751;28;41707;-69
2023/09/30 14:18:02;;;;;;;11.57;3.08;;;;;;;;;;5105082;27;41477;-69
2023/09/30 14:20:30;;;;;;;14.93;3.92;;;;;;;;;;5106306;28;41132;-69
2023/09/30 14:22:58;;;;;;;9.00;3.17;;;;;;;;;;5105564;28;42201;-69
2023/09/30 14:25:26;;;;;;;8.63;3.17;;;;;;;;;;5103520;28;40535;-69
2023/09/30 14:27:54;;;;;;;12.57;3.65;;;;;;;;;;5104587;28;40154;-69
2023/09/30 14:30:22;;;;;;;8.27;3.25;;;;;;;;;;5105131;28;41476;-70
2023/09/30 14:32:51;;;;;;;7.85;3.00;;;;;;;;;;5106192;28;42891;-69
2023/09/30 14:35:19;;;;;;;6.85;3.13;;;;;;;;;;5100809;28;41667;-70
2023/09/30 14:37:47;;;;;;;10.07;3.05;;;;;;;;;;5105948;28;42551;-70
2023/09/30 14:40:15;;;;;;;7.93;3.00;;;;;;;;;;5103283;28;42467;-70
2023/09/30 14:42:43;;;;;;;17.48;3.42;;;;;;;;;;5087645;28;40209;-70
2023/09/30 14:45:11;;;;;;;11.85;3.53;;;;;;;;;;5106667;28;42255;-70
2023/09/30 14:47:39;;;;;;;15.30;4.25;;;;;;;;;;5105689;28;42000;-70
2023/09/30 14:50:09;;;;;;;10.75;3.60;;;;;;;;;;5105179;28;42257;-70